createdAt,value
2017-10-09T00:00:31.740Z,6.28
2017-10-09T00:01:31.808Z,6.30
2017-10-09T00:02:31.748Z,6.24
2017-10-09T00:03:31.822Z,6.26
2017-10-09T00:04:31.765Z,6.27
2017-10-09T00:05:31.835Z,6.24
2017-10-09T00:06:31.780Z,6.14
2017-10-09T00:07:31.849Z,6.16
2017-10-09T00:08:31.797Z,6.17
2017-10-09T00:09:31.845Z,6.19
2017-10-09T00:10:31.811Z,6.22
2017-10-09T00:11:31.876Z,6.19
2017-10-09T00:12:31.832Z,6.19
2017-10-09T00:13:31.890Z,6.22
2017-10-09T00:14:31.838Z,6.17
2017-10-09T00:15:31.905Z,6.20
2017-10-09T00:16:31.850Z,6.22
2017-10-09T00:17:31.919Z,6.19
2017-10-09T00:18:31.867Z,6.12
2017-10-09T00:19:31.930Z,6.16
2017-10-09T00:20:31.881Z,6.22
2017-10-09T00:21:31.947Z,6.08
2017-10-09T00:22:31.894Z,6.11
2017-10-09T00:23:31.958Z,6.04
2017-10-09T00:24:31.916Z,6.16
2017-10-09T00:25:31.971Z,6.05
2017-10-09T00:26:31.921Z,6.07
2017-10-09T00:27:31.984Z,5.98
2017-10-09T00:28:31.942Z,5.98
2017-10-09T00:29:31.998Z,6.11
2017-10-09T00:30:31.951Z,6.01
2017-10-09T00:31:32.011Z,6.02
2017-10-09T00:32:31.962Z,6.02
2017-10-09T00:33:32.026Z,6.02
2017-10-09T00:34:31.982Z,5.99
2017-10-09T00:35:32.038Z,5.99
2017-10-09T00:36:31.995Z,6.04
2017-10-09T00:37:32.052Z,6.02
2017-10-09T00:38:32.011Z,5.97
2017-10-09T00:39:32.064Z,6.01
2017-10-09T00:40:32.024Z,5.98
2017-10-09T00:41:32.079Z,6.02
2017-10-09T00:42:32.037Z,5.98
2017-10-09T00:43:32.092Z,6.01
2017-10-09T00:44:32.051Z,6.01
2017-10-09T00:45:32.105Z,6.01
2017-10-09T00:46:32.067Z,6.01
2017-10-09T00:47:32.121Z,5.99
2017-10-09T00:48:32.079Z,6.05
2017-10-09T00:49:32.135Z,6.05
2017-10-09T00:50:32.092Z,5.97
2017-10-09T00:51:32.149Z,5.98
2017-10-09T00:52:32.108Z,5.98
2017-10-09T00:53:32.162Z,5.99
2017-10-09T00:54:32.124Z,5.97
2017-10-09T00:55:32.276Z,5.91
2017-10-09T00:56:32.137Z,5.98
2017-10-09T00:57:32.290Z,5.98
2017-10-09T00:58:32.150Z,5.99
2017-10-09T00:59:32.304Z,6.02
2017-10-09T01:00:32.171Z,6.01
2017-10-09T01:01:32.317Z,6.05
2017-10-09T01:02:32.182Z,6.04
2017-10-09T01:03:32.331Z,6.02
2017-10-09T01:04:32.196Z,6.01
2017-10-09T01:05:32.346Z,6.01
2017-10-09T01:06:32.209Z,6.02
2017-10-09T01:07:32.358Z,5.99
2017-10-09T01:08:32.224Z,6.05
2017-10-09T01:09:32.372Z,6.12
2017-10-09T01:10:32.237Z,6.14
2017-10-09T01:11:32.387Z,6.08
2017-10-09T01:12:32.250Z,6.17
2017-10-09T01:13:32.400Z,6.22
2017-10-09T01:14:32.264Z,6.22
2017-10-09T01:15:32.413Z,6.26
2017-10-09T01:16:32.282Z,6.33
2017-10-09T01:17:32.424Z,6.24
2017-10-09T01:18:32.289Z,6.35
2017-10-09T01:19:32.454Z,6.41
2017-10-09T01:20:32.308Z,6.38
2017-10-09T01:21:32.455Z,6.36
2017-10-09T01:22:32.322Z,6.36
2017-10-09T01:23:32.466Z,6.45
2017-10-09T01:24:32.334Z,6.52
2017-10-09T01:25:32.478Z,6.48
2017-10-09T01:26:32.349Z,6.44
2017-10-09T01:27:32.496Z,6.46
2017-10-09T01:28:32.363Z,6.46
2017-10-09T01:29:32.508Z,6.52
2017-10-09T01:30:32.374Z,6.46
2017-10-09T01:31:32.521Z,6.46
2017-10-09T01:32:32.391Z,6.51
2017-10-09T01:33:32.536Z,6.48
2017-10-09T01:34:32.405Z,6.46
2017-10-09T01:35:32.546Z,6.49
2017-10-09T01:36:32.421Z,6.48
2017-10-09T01:37:32.512Z,6.51
2017-10-09T01:38:32.437Z,6.56
2017-10-09T01:39:32.525Z,6.57
2017-10-09T01:40:32.443Z,6.52
2017-10-09T01:41:32.540Z,6.54
2017-10-09T01:42:32.459Z,6.52
2017-10-09T01:43:32.552Z,6.59
2017-10-09T01:44:32.474Z,6.54
2017-10-09T01:45:32.482Z,6.49
2017-10-09T01:46:32.488Z,6.54
2017-10-09T01:47:32.575Z,6.60
2017-10-09T01:48:32.502Z,6.59
2017-10-09T01:49:32.592Z,6.56
2017-10-09T01:50:32.512Z,6.54
2017-10-09T01:51:32.602Z,6.51
2017-10-09T01:52:32.527Z,6.54
2017-10-09T01:53:32.614Z,6.51
2017-10-09T01:54:32.542Z,6.48
2017-10-09T01:55:32.628Z,6.52
2017-10-09T01:56:32.553Z,6.41
2017-10-09T01:57:32.642Z,6.33
2017-10-09T01:58:32.569Z,6.38
2017-10-09T01:59:32.657Z,6.42
2017-10-09T02:00:32.582Z,6.36
2017-10-09T02:01:32.667Z,6.38
2017-10-09T02:02:32.596Z,6.22
2017-10-09T02:03:32.679Z,6.24
2017-10-09T02:04:32.611Z,6.33
2017-10-09T02:05:32.695Z,6.22
2017-10-09T02:06:32.623Z,6.22
2017-10-09T02:07:32.709Z,6.20
2017-10-09T02:08:32.643Z,6.17
2017-10-09T02:09:32.718Z,6.14
2017-10-09T02:10:32.653Z,6.12
2017-10-09T02:11:32.732Z,6.09
2017-10-09T02:12:32.665Z,6.07
2017-10-09T02:13:32.746Z,6.07
2017-10-09T02:14:32.695Z,6.04
2017-10-09T02:15:32.757Z,6.09
2017-10-09T02:16:32.691Z,6.17
2017-10-09T02:17:32.768Z,6.12
2017-10-09T02:18:32.705Z,6.11
2017-10-09T02:19:32.784Z,6.11
2017-10-09T02:20:32.722Z,6.16
2017-10-09T02:21:32.803Z,6.17
2017-10-09T02:22:32.735Z,6.20
2017-10-09T02:23:32.809Z,6.28
2017-10-09T02:24:32.749Z,6.38
2017-10-09T02:25:32.823Z,6.38
2017-10-09T02:26:32.762Z,6.38
2017-10-09T02:27:32.835Z,6.38
2017-10-09T02:28:32.775Z,6.42
2017-10-09T02:29:32.846Z,6.36
2017-10-09T02:30:32.791Z,6.35
2017-10-09T02:31:32.861Z,6.33
2017-10-09T02:32:32.804Z,6.35
2017-10-09T02:33:32.874Z,6.35
2017-10-09T02:34:32.818Z,6.35
2017-10-09T02:35:32.892Z,6.33
2017-10-09T02:36:32.825Z,6.20
2017-10-09T02:37:32.902Z,6.22
2017-10-09T02:38:32.842Z,6.24
2017-10-09T02:39:32.852Z,6.27
2017-10-09T02:40:32.855Z,6.24
2017-10-09T02:41:32.868Z,6.22
2017-10-09T02:42:32.870Z,6.20
2017-10-09T02:43:32.941Z,6.24
2017-10-09T02:44:32.883Z,6.14
2017-10-09T02:45:32.954Z,6.12
2017-10-09T02:46:32.895Z,6.02
2017-10-09T02:47:32.969Z,6.09
2017-10-09T02:48:32.910Z,6.02
2017-10-09T02:49:32.981Z,6.04
2017-10-09T02:50:32.922Z,6.04
2017-10-09T02:51:32.990Z,5.99
2017-10-09T02:52:32.938Z,5.98
2017-10-09T02:53:33.003Z,5.94
2017-10-09T02:54:32.949Z,5.93
2017-10-09T02:55:32.959Z,5.83
2017-10-09T02:56:32.963Z,5.87
2017-10-09T02:57:33.029Z,5.80
2017-10-09T02:58:32.976Z,5.80
2017-10-09T02:59:33.040Z,5.80
2017-10-09T03:00:32.991Z,5.71
2017-10-09T03:01:33.057Z,5.66
2017-10-09T03:02:33.005Z,5.79
2017-10-09T03:03:33.081Z,5.76
2017-10-09T03:04:33.019Z,5.76
2017-10-09T03:05:33.029Z,5.79
2017-10-09T03:06:33.030Z,5.69
2017-10-09T03:07:33.090Z,5.66
2017-10-09T03:08:33.044Z,5.54
2017-10-09T03:09:33.104Z,5.66
2017-10-09T03:10:33.068Z,5.59
2017-10-09T03:11:33.118Z,5.56
2017-10-09T03:12:33.070Z,5.64
2017-10-09T03:13:33.130Z,5.64
2017-10-09T03:14:33.090Z,5.64
2017-10-09T03:15:33.144Z,5.56
2017-10-09T03:16:33.100Z,5.57
2017-10-09T03:17:33.155Z,5.54
2017-10-09T03:18:33.116Z,5.48
2017-10-09T03:19:33.170Z,5.48
2017-10-09T03:20:33.130Z,5.57
2017-10-09T03:21:33.186Z,5.54
2017-10-09T03:22:33.143Z,5.50
2017-10-09T03:23:33.198Z,5.50
2017-10-09T03:24:33.157Z,5.50
2017-10-09T03:25:33.210Z,5.43
2017-10-09T03:26:33.168Z,5.35
2017-10-09T03:27:33.226Z,5.47
2017-10-09T03:28:33.181Z,5.39
2017-10-09T03:29:33.239Z,5.33
2017-10-09T03:30:33.194Z,5.41
2017-10-09T03:31:33.250Z,5.30
2017-10-09T03:32:33.211Z,5.33
2017-10-09T03:33:33.215Z,5.30
2017-10-09T03:34:33.268Z,5.38
2017-10-09T03:35:33.226Z,5.44
2017-10-09T03:36:33.283Z,5.43
2017-10-09T03:37:33.242Z,5.44
2017-10-09T03:38:33.295Z,5.50
2017-10-09T03:39:33.252Z,5.47
2017-10-09T03:40:33.308Z,5.50
2017-10-09T03:41:33.270Z,5.54
2017-10-09T03:42:33.317Z,5.56
2017-10-09T03:43:33.278Z,5.56
2017-10-09T03:44:33.333Z,5.53
2017-10-09T03:45:33.292Z,5.51
2017-10-09T03:46:33.348Z,5.47
2017-10-09T03:47:33.303Z,5.50
2017-10-09T03:48:33.356Z,5.43
2017-10-09T03:49:33.318Z,5.46
2017-10-09T03:50:33.378Z,5.47
2017-10-09T03:51:33.332Z,5.44
2017-10-09T03:52:33.388Z,5.44
2017-10-09T03:53:33.344Z,5.47
2017-10-09T03:54:33.399Z,5.43
2017-10-09T03:55:33.355Z,5.41
2017-10-09T03:56:33.411Z,5.43
2017-10-09T03:57:33.372Z,5.43
2017-10-09T03:58:33.422Z,5.41
2017-10-09T03:59:33.382Z,5.39
2017-10-09T04:00:33.439Z,5.39
2017-10-09T04:01:33.397Z,5.43
2017-10-09T04:02:33.400Z,5.39
2017-10-09T04:03:33.461Z,5.39
2017-10-09T04:04:33.414Z,5.39
2017-10-09T04:05:33.467Z,5.39
2017-10-09T04:06:33.426Z,5.36
2017-10-09T04:07:33.480Z,5.47
2017-10-09T04:08:33.443Z,5.46
2017-10-09T04:09:33.495Z,5.48
2017-10-09T04:10:33.451Z,5.46
2017-10-09T04:11:33.508Z,5.48
2017-10-09T04:12:33.469Z,5.53
2017-10-09T04:13:33.520Z,5.61
2017-10-09T04:14:33.488Z,5.59
2017-10-09T04:15:33.536Z,5.71
2017-10-09T04:16:33.498Z,5.71
2017-10-09T04:17:33.546Z,5.69
2017-10-09T04:18:33.507Z,5.75
2017-10-09T04:19:33.560Z,5.76
2017-10-09T04:20:33.518Z,5.76
2017-10-09T04:21:33.575Z,5.82
2017-10-09T04:22:33.535Z,5.87
2017-10-09T04:23:33.587Z,5.90
2017-10-09T04:24:33.546Z,5.93
2017-10-09T04:25:34.624Z,5.99
2017-10-09T04:26:33.559Z,5.89
2017-10-09T04:27:33.613Z,5.91
2017-10-09T04:28:33.573Z,5.94
2017-10-09T04:29:33.628Z,6.01
2017-10-09T04:30:33.585Z,5.99
2017-10-09T04:31:33.640Z,6.02
2017-10-09T04:32:33.597Z,6.08
2017-10-09T04:33:33.653Z,6.08
2017-10-09T04:34:33.613Z,6.08
2017-10-09T04:35:33.666Z,6.09
2017-10-09T04:36:33.625Z,6.16
2017-10-09T04:37:33.675Z,6.12
2017-10-09T04:38:33.633Z,6.14
2017-10-09T04:39:33.689Z,6.22
2017-10-09T04:40:33.646Z,6.22
2017-10-09T04:41:33.701Z,6.17
2017-10-09T04:42:33.660Z,6.17
2017-10-09T04:43:33.710Z,6.17
2017-10-09T04:44:33.680Z,6.17
2017-10-09T04:45:33.727Z,6.17
2017-10-09T04:46:33.685Z,6.19
2017-10-09T04:47:33.740Z,6.19
2017-10-09T04:48:33.700Z,6.22
2017-10-09T04:49:33.751Z,6.17
2017-10-09T04:50:33.710Z,6.17
2017-10-09T04:51:33.761Z,6.24
2017-10-09T04:52:33.726Z,6.22
2017-10-09T04:53:33.775Z,6.19
2017-10-09T04:54:33.745Z,6.09
2017-10-09T04:55:33.788Z,6.17
2017-10-09T04:56:33.751Z,6.12
2017-10-09T04:57:33.760Z,6.11
2017-10-09T04:58:33.806Z,6.07
2017-10-09T04:59:33.772Z,6.14
2017-10-09T05:00:33.819Z,6.11
2017-10-09T05:01:33.785Z,6.09
2017-10-09T05:02:33.832Z,6.08
2017-10-09T05:03:33.798Z,5.99
2017-10-09T05:04:33.844Z,5.99
2017-10-09T05:05:33.812Z,5.99
2017-10-09T05:06:33.858Z,6.01
2017-10-09T05:07:33.826Z,6.01
2017-10-09T05:08:33.870Z,6.02
2017-10-09T05:09:33.838Z,5.97
2017-10-09T05:10:33.884Z,5.93
2017-10-09T05:11:33.852Z,5.91
2017-10-09T05:12:33.896Z,5.97
2017-10-09T05:13:33.863Z,5.90
2017-10-09T05:14:33.910Z,5.97
2017-10-09T05:15:33.871Z,5.99
2017-10-09T05:16:33.895Z,5.90
2017-10-09T05:17:33.889Z,5.94
2017-10-09T05:18:33.936Z,5.94
2017-10-09T05:19:33.900Z,5.94
2017-10-09T05:20:33.948Z,5.86
2017-10-09T05:21:33.911Z,5.91
2017-10-09T05:22:33.967Z,5.86
2017-10-09T05:23:33.928Z,5.98
2017-10-09T05:24:33.978Z,5.93
2017-10-09T05:25:33.937Z,5.90
2017-10-09T05:26:33.996Z,5.90
2017-10-09T05:27:33.948Z,5.89
2017-10-09T05:28:34.003Z,5.87
2017-10-09T05:29:33.964Z,5.90
2017-10-09T05:30:34.018Z,5.90
2017-10-09T05:31:33.974Z,5.89
2017-10-09T05:32:35.052Z,5.84
2017-10-09T05:33:33.999Z,5.87
2017-10-09T05:34:34.042Z,5.89
2017-10-09T05:35:33.998Z,5.83
2017-10-09T05:36:34.055Z,5.84
2017-10-09T05:37:34.015Z,5.87
2017-10-09T05:38:34.064Z,5.82
2017-10-09T05:39:34.028Z,5.82
2017-10-09T05:40:34.078Z,5.76
2017-10-09T05:41:34.040Z,5.82
2017-10-09T05:42:34.089Z,5.79
2017-10-09T05:43:34.051Z,5.79
2017-10-09T05:44:34.105Z,5.76
2017-10-09T05:45:34.070Z,5.80
2017-10-09T05:46:34.117Z,5.83
2017-10-09T05:47:34.078Z,5.75
2017-10-09T05:48:34.128Z,5.84
2017-10-09T05:49:34.090Z,5.91
2017-10-09T05:50:34.143Z,5.97
2017-10-09T05:51:34.113Z,5.97
2017-10-09T05:52:34.156Z,5.98
2017-10-09T05:53:34.111Z,6.02
2017-10-09T05:54:34.170Z,6.12
2017-10-09T05:55:34.126Z,6.19
2017-10-09T05:56:34.181Z,6.19
2017-10-09T05:57:34.136Z,6.20
2017-10-09T05:58:34.192Z,6.20
2017-10-09T05:59:34.152Z,6.24
2017-10-09T06:00:34.206Z,6.33
2017-10-09T06:01:34.166Z,6.24
2017-10-09T06:02:34.181Z,6.42
2017-10-09T06:03:34.227Z,6.33
2017-10-09T06:04:34.187Z,6.49
2017-10-09T06:05:34.196Z,6.41
2017-10-09T06:06:34.347Z,6.48
2017-10-09T06:07:34.205Z,6.52
2017-10-09T06:08:34.361Z,6.52
2017-10-09T06:09:34.219Z,6.57
2017-10-09T06:10:34.373Z,6.59
2017-10-09T06:11:34.234Z,6.54
2017-10-09T06:12:34.387Z,6.60
2017-10-09T06:13:34.246Z,6.57
2017-10-09T06:14:34.402Z,6.67
2017-10-09T06:15:34.255Z,6.62
2017-10-09T06:16:34.414Z,6.62
2017-10-09T06:17:34.269Z,6.66
2017-10-09T06:18:34.429Z,6.74
2017-10-09T06:19:34.272Z,6.67
2017-10-09T06:20:34.446Z,6.72
2017-10-09T06:21:34.291Z,6.78
2017-10-09T06:22:34.456Z,6.79
2017-10-09T06:23:34.309Z,6.79
2017-10-09T06:24:34.309Z,6.89
2017-10-09T06:25:34.374Z,6.87
2017-10-09T06:26:34.329Z,6.99
2017-10-09T06:27:34.338Z,6.92
2017-10-09T06:28:34.343Z,6.96
2017-10-09T06:29:34.349Z,7.02
2017-10-09T06:30:34.357Z,6.97
2017-10-09T06:31:34.416Z,6.97
2017-10-09T06:32:34.362Z,6.95
2017-10-09T06:33:34.368Z,6.99
2017-10-09T06:34:34.440Z,6.96
2017-10-09T06:35:34.379Z,7.11
2017-10-09T06:36:34.386Z,7.14
2017-10-09T06:37:34.398Z,7.00
2017-10-09T06:38:34.390Z,7.00
2017-10-09T06:39:34.402Z,7.13
2017-10-09T06:40:34.408Z,7.13
2017-10-09T06:41:34.416Z,7.14
2017-10-09T06:42:34.425Z,7.14
2017-10-09T06:43:34.428Z,7.13
2017-10-09T06:44:34.503Z,7.14
2017-10-09T06:45:34.439Z,6.97
2017-10-09T06:46:34.516Z,7.03
2017-10-09T06:47:34.452Z,6.96
2017-10-09T06:48:34.532Z,7.00
2017-10-09T06:49:34.465Z,6.96
2017-10-09T06:50:34.542Z,7.00
2017-10-09T06:51:34.477Z,7.00
2017-10-09T06:52:34.556Z,6.99
2017-10-09T06:53:34.498Z,6.99
2017-10-09T06:54:34.571Z,6.95
2017-10-09T06:55:34.502Z,7.03
2017-10-09T06:56:34.583Z,6.99
2017-10-09T06:57:34.511Z,7.03
2017-10-09T06:58:34.597Z,7.00
2017-10-09T06:59:34.529Z,7.03
2017-10-09T07:00:34.531Z,7.11
2017-10-09T07:01:34.537Z,7.21
2017-10-09T07:02:34.627Z,7.15
2017-10-09T07:03:34.550Z,7.21
2017-10-09T07:04:34.637Z,7.33
2017-10-09T07:05:34.565Z,7.32
2017-10-09T07:06:34.651Z,7.38
2017-10-09T07:07:34.577Z,7.42
2017-10-09T07:08:34.665Z,7.43
2017-10-09T07:09:34.589Z,7.51
2017-10-09T07:10:34.691Z,7.47
2017-10-09T07:11:34.603Z,7.61
2017-10-09T07:12:34.702Z,7.63
2017-10-09T07:13:34.632Z,7.63
2017-10-09T07:14:34.731Z,7.72
2017-10-09T07:15:34.624Z,7.61
2017-10-09T07:16:34.724Z,7.69
2017-10-09T07:17:34.638Z,7.80
2017-10-09T07:18:34.734Z,7.73
2017-10-09T07:19:34.656Z,7.76
2017-10-09T07:20:34.751Z,7.82
2017-10-09T07:21:34.669Z,7.79
2017-10-09T07:22:34.757Z,7.90
2017-10-09T07:23:34.674Z,7.93
2017-10-09T07:24:34.776Z,7.83
2017-10-09T07:25:34.689Z,7.90
2017-10-09T07:26:34.788Z,7.94
2017-10-09T07:27:34.697Z,7.93
2017-10-09T07:28:34.802Z,7.94
2017-10-09T07:29:34.712Z,8.06
2017-10-09T07:30:34.816Z,8.03
2017-10-09T07:31:34.722Z,7.97
2017-10-09T07:32:34.829Z,8.05
2017-10-09T07:33:34.735Z,7.98
2017-10-09T07:34:34.916Z,7.98
2017-10-09T07:35:34.803Z,8.01
2017-10-09T07:36:35.912Z,8.08
2017-10-09T07:37:34.761Z,8.09
2017-10-09T07:38:34.870Z,8.13
2017-10-09T07:39:34.773Z,8.31
2017-10-09T07:40:34.884Z,8.30
2017-10-09T07:41:34.792Z,8.33
2017-10-09T07:42:34.938Z,8.37
2017-10-09T07:43:34.809Z,8.42
2017-10-09T07:44:34.942Z,8.55
2017-10-09T07:45:34.811Z,8.53
2017-10-09T07:46:34.969Z,8.63
2017-10-09T07:47:34.824Z,8.60
2017-10-09T07:48:34.974Z,8.60
2017-10-09T07:49:34.828Z,8.69
2017-10-09T07:50:34.838Z,8.63
2017-10-09T07:51:34.844Z,8.67
2017-10-09T07:52:34.895Z,8.71
2017-10-09T07:53:34.861Z,8.56
2017-10-09T07:54:34.891Z,8.60
2017-10-09T07:55:34.919Z,8.67
2017-10-09T07:56:35.066Z,8.71
2017-10-09T07:57:34.883Z,8.82
2017-10-09T07:58:34.892Z,8.71
2017-10-09T07:59:34.899Z,8.87
2017-10-09T08:00:34.895Z,8.92
2017-10-09T08:01:34.909Z,8.99
2017-10-09T08:02:34.931Z,8.99
2017-10-09T08:03:34.928Z,9.00
2017-10-09T08:04:34.925Z,9.19
2017-10-09T08:05:35.009Z,9.19
2017-10-09T08:06:34.940Z,9.21
2017-10-09T08:07:34.994Z,9.28
2017-10-09T08:08:34.953Z,9.25
2017-10-09T08:09:35.017Z,9.40
2017-10-09T08:10:34.961Z,9.44
2017-10-09T08:11:35.030Z,9.40
2017-10-09T08:12:34.975Z,9.43
2017-10-09T08:13:35.042Z,9.48
2017-10-09T08:14:34.984Z,9.51
2017-10-09T08:15:35.058Z,9.51
2017-10-09T08:16:35.006Z,9.54
2017-10-09T08:17:35.068Z,9.51
2017-10-09T08:18:35.016Z,9.48
2017-10-09T08:19:35.081Z,9.51
2017-10-09T08:20:35.028Z,9.56
2017-10-09T08:21:35.102Z,9.54
2017-10-09T08:22:35.042Z,9.50
2017-10-09T08:23:35.110Z,9.68
2017-10-09T08:24:35.075Z,9.61
2017-10-09T08:25:35.121Z,9.56
2017-10-09T08:26:35.063Z,9.69
2017-10-09T08:27:35.138Z,9.69
2017-10-09T08:28:35.076Z,9.77
2017-10-09T08:29:35.150Z,9.76
2017-10-09T08:30:35.088Z,9.83
2017-10-09T08:31:35.099Z,9.91
2017-10-09T08:32:35.097Z,9.86
2017-10-09T08:33:35.103Z,9.92
2017-10-09T08:34:35.112Z,9.97
2017-10-09T08:35:35.115Z,10.01
2017-10-09T08:36:35.122Z,10.13
2017-10-09T08:37:35.129Z,10.10
2017-10-09T08:38:35.136Z,10.22
2017-10-09T08:39:35.144Z,10.12
2017-10-09T08:40:35.148Z,10.26
2017-10-09T08:41:35.156Z,10.12
2017-10-09T08:42:35.161Z,10.23
2017-10-09T08:43:35.167Z,10.17
2017-10-09T08:44:35.177Z,10.22
2017-10-09T08:45:35.176Z,10.13
2017-10-09T08:46:35.265Z,10.07
2017-10-09T08:47:35.188Z,10.13
2017-10-09T08:48:35.195Z,10.04
2017-10-09T08:49:35.291Z,9.98
2017-10-09T08:50:35.207Z,10.09
2017-10-09T08:51:35.213Z,10.09
2017-10-09T08:52:35.305Z,10.10
2017-10-09T08:53:35.225Z,10.25
2017-10-09T08:54:35.318Z,10.28
2017-10-09T08:55:35.237Z,10.22
2017-10-09T08:56:35.337Z,10.33
2017-10-09T08:57:35.255Z,10.38
2017-10-09T08:58:35.351Z,10.51
2017-10-09T08:59:35.269Z,10.57
2017-10-09T09:00:35.362Z,10.64
2017-10-09T09:01:35.276Z,10.59
2017-10-09T09:02:35.380Z,10.68
2017-10-09T09:03:35.296Z,10.64
2017-10-09T09:04:35.427Z,10.61
2017-10-09T09:05:35.303Z,10.61
2017-10-09T09:06:35.404Z,10.53
2017-10-09T09:07:35.310Z,10.61
2017-10-09T09:08:35.415Z,10.64
2017-10-09T09:09:35.381Z,10.68
2017-10-09T09:10:35.431Z,10.60
2017-10-09T09:11:35.334Z,10.60
2017-10-09T09:12:36.370Z,10.63
2017-10-09T09:13:35.348Z,10.68
2017-10-09T09:14:35.461Z,10.72
2017-10-09T09:15:35.361Z,10.84
2017-10-09T09:16:35.468Z,10.79
2017-10-09T09:17:35.396Z,10.86
2017-10-09T09:18:35.517Z,10.75
2017-10-09T09:19:35.386Z,10.81
2017-10-09T09:20:35.495Z,10.87
2017-10-09T09:21:35.399Z,10.86
2017-10-09T09:22:35.545Z,10.93
2017-10-09T09:23:35.416Z,10.84
2017-10-09T09:24:36.450Z,10.82
2017-10-09T09:25:35.428Z,10.94
2017-10-09T09:26:35.535Z,10.84
2017-10-09T09:27:35.437Z,10.96
2017-10-09T09:28:35.559Z,11.00
2017-10-09T09:29:35.451Z,11.07
2017-10-09T09:30:35.569Z,11.07
2017-10-09T09:31:35.459Z,11.22
2017-10-09T09:32:35.576Z,11.32
2017-10-09T09:33:35.472Z,11.37
2017-10-09T09:34:36.511Z,11.43
2017-10-09T09:35:35.481Z,11.50
2017-10-09T09:36:35.605Z,11.45
2017-10-09T09:37:35.497Z,11.52
2017-10-09T09:38:36.539Z,11.57
2017-10-09T09:39:35.511Z,11.65
2017-10-09T09:40:35.630Z,11.65
2017-10-09T09:41:35.523Z,11.72
2017-10-09T09:42:35.541Z,11.78
2017-10-09T09:43:35.532Z,11.87
2017-10-09T09:44:35.557Z,11.83
2017-10-09T09:45:35.549Z,11.84
2017-10-09T09:46:36.606Z,11.80
2017-10-09T09:47:35.556Z,11.80
2017-10-09T09:48:35.593Z,11.99
2017-10-09T09:49:35.573Z,12.02
2017-10-09T09:50:35.608Z,12.03
2017-10-09T09:51:35.582Z,12.06
2017-10-09T09:52:35.620Z,12.17
2017-10-09T09:53:35.596Z,12.22
2017-10-09T09:54:35.633Z,12.24
2017-10-09T09:55:35.607Z,12.37
2017-10-09T09:56:35.649Z,12.40
2017-10-09T09:57:35.621Z,12.46
2017-10-09T09:58:35.660Z,12.47
2017-10-09T09:59:35.634Z,12.50
2017-10-09T10:00:35.674Z,12.67
2017-10-09T10:01:35.658Z,12.62
2017-10-09T10:02:35.687Z,12.64
2017-10-09T10:03:35.658Z,12.70
2017-10-09T10:04:35.702Z,12.68
2017-10-09T10:05:35.671Z,12.70
2017-10-09T10:06:35.714Z,12.65
2017-10-09T10:07:35.683Z,12.60
2017-10-09T10:08:35.728Z,12.62
2017-10-09T10:09:35.699Z,12.47
2017-10-09T10:10:35.759Z,12.55
2017-10-09T10:11:35.707Z,12.55
2017-10-09T10:12:35.754Z,12.62
2017-10-09T10:13:35.719Z,12.55
2017-10-09T10:14:35.769Z,12.57
2017-10-09T10:15:35.736Z,12.55
2017-10-09T10:16:35.782Z,12.64
2017-10-09T10:17:35.747Z,12.67
2017-10-09T10:18:35.804Z,12.73
2017-10-09T10:19:35.756Z,12.75
2017-10-09T10:20:35.808Z,12.78
2017-10-09T10:21:35.775Z,12.78
2017-10-09T10:22:35.824Z,12.87
2017-10-09T10:23:35.787Z,12.83
2017-10-09T10:24:35.789Z,12.95
2017-10-09T10:25:35.844Z,12.97
2017-10-09T10:26:35.800Z,12.95
2017-10-09T10:27:35.858Z,13.09
2017-10-09T10:28:35.820Z,13.04
2017-10-09T10:29:35.871Z,13.03
2017-10-09T10:30:35.828Z,13.05
2017-10-09T10:31:35.882Z,13.09
2017-10-09T10:32:35.846Z,13.08
2017-10-09T10:33:35.896Z,13.09
2017-10-09T10:34:35.856Z,13.11
2017-10-09T10:35:35.909Z,12.97
2017-10-09T10:36:35.868Z,13.04
2017-10-09T10:37:35.965Z,12.91
2017-10-09T10:38:35.881Z,12.93
2017-10-09T10:39:35.942Z,12.94
2017-10-09T10:40:35.903Z,12.91
2017-10-09T10:41:35.959Z,12.94
2017-10-09T10:42:35.907Z,12.87
2017-10-09T10:43:35.970Z,12.93
2017-10-09T10:44:35.926Z,12.87
2017-10-09T10:45:35.983Z,12.90
2017-10-09T10:46:35.934Z,12.90
2017-10-09T10:47:35.993Z,12.83
2017-10-09T10:48:35.948Z,12.87
2017-10-09T10:49:36.006Z,12.91
2017-10-09T10:50:35.958Z,12.95
2017-10-09T10:51:36.020Z,12.91
2017-10-09T10:52:35.982Z,13.01
2017-10-09T10:53:36.031Z,13.11
2017-10-09T10:54:35.994Z,13.13
2017-10-09T10:55:36.063Z,13.33
2017-10-09T10:56:35.996Z,13.35
2017-10-09T10:57:36.058Z,13.42
2017-10-09T10:58:36.010Z,13.44
2017-10-09T10:59:36.081Z,13.52
2017-10-09T11:00:36.023Z,13.59
2017-10-09T11:01:36.085Z,13.54
2017-10-09T11:02:36.039Z,13.60
2017-10-09T11:03:36.106Z,13.65
2017-10-09T11:04:36.050Z,13.71
2017-10-09T11:05:36.112Z,13.74
2017-10-09T11:06:36.058Z,13.65
2017-10-09T11:07:36.127Z,13.65
2017-10-09T11:08:36.075Z,13.71
2017-10-09T11:09:36.132Z,13.77
2017-10-09T11:10:36.090Z,13.79
2017-10-09T11:11:36.162Z,13.78
2017-10-09T11:12:36.099Z,13.89
2017-10-09T11:13:36.169Z,13.96
2017-10-09T11:14:36.112Z,13.92
2017-10-09T11:15:36.182Z,13.90
2017-10-09T11:16:36.127Z,13.93
2017-10-09T11:17:36.198Z,13.96
2017-10-09T11:18:36.138Z,13.89
2017-10-09T11:19:36.208Z,13.93
2017-10-09T11:20:36.150Z,13.81
2017-10-09T11:21:36.233Z,13.81
2017-10-09T11:22:36.159Z,13.83
2017-10-09T11:23:36.236Z,13.75
2017-10-09T11:24:36.177Z,13.72
2017-10-09T11:25:36.251Z,13.68
2017-10-09T11:26:36.191Z,13.67
2017-10-09T11:27:36.263Z,13.70
2017-10-09T11:28:36.202Z,13.70
2017-10-09T11:29:36.275Z,13.72
2017-10-09T11:30:36.215Z,13.79
2017-10-09T11:31:37.314Z,13.79
2017-10-09T11:32:36.230Z,13.74
2017-10-09T11:33:36.304Z,13.78
2017-10-09T11:34:36.242Z,13.75
2017-10-09T11:35:36.323Z,13.68
2017-10-09T11:36:36.269Z,13.60
2017-10-09T11:37:36.330Z,13.68
2017-10-09T11:38:36.267Z,13.70
2017-10-09T11:39:36.345Z,13.65
2017-10-09T11:40:36.281Z,13.71
2017-10-09T11:41:37.380Z,13.72
2017-10-09T11:42:36.305Z,13.78
2017-10-09T11:43:36.379Z,13.75
2017-10-09T11:44:36.313Z,13.74
2017-10-09T11:45:37.410Z,13.81
2017-10-09T11:46:36.320Z,13.79
2017-10-09T11:47:36.398Z,13.78
2017-10-09T11:48:36.334Z,13.75
2017-10-09T11:49:36.413Z,13.81
2017-10-09T11:50:36.346Z,13.81
2017-10-09T11:51:36.350Z,13.79
2017-10-09T11:52:36.432Z,13.77
2017-10-09T11:53:36.393Z,13.87
2017-10-09T11:54:36.446Z,13.81
2017-10-09T11:55:36.378Z,13.75
2017-10-09T11:56:36.464Z,13.75
2017-10-09T11:57:36.393Z,13.79
2017-10-09T11:58:36.474Z,13.77
2017-10-09T11:59:36.404Z,13.78
2017-10-09T12:00:36.490Z,13.77
2017-10-09T12:01:36.418Z,13.87
2017-10-09T12:02:36.500Z,13.87
2017-10-09T12:03:36.442Z,13.93
2017-10-09T12:04:36.439Z,14.04
2017-10-09T12:05:36.519Z,14.11
2017-10-09T12:06:36.450Z,14.15
2017-10-09T12:07:36.534Z,14.18
2017-10-09T12:08:36.470Z,14.26
2017-10-09T12:09:36.545Z,14.23
2017-10-09T12:10:36.477Z,14.28
2017-10-09T12:11:36.564Z,14.33
2017-10-09T12:12:36.494Z,14.35
2017-10-09T12:13:36.572Z,14.32
2017-10-09T12:14:36.513Z,14.30
2017-10-09T12:15:36.588Z,14.20
2017-10-09T12:16:36.548Z,14.20
2017-10-09T12:17:36.606Z,14.28
2017-10-09T12:18:36.610Z,14.23
2017-10-09T12:19:36.701Z,14.18
2017-10-09T12:20:36.541Z,14.23
2017-10-09T12:21:36.628Z,14.18
2017-10-09T12:22:36.553Z,14.23
2017-10-09T12:23:36.686Z,14.23
2017-10-09T12:24:36.571Z,14.28
2017-10-09T12:25:36.654Z,14.18
2017-10-09T12:26:36.582Z,14.29
2017-10-09T12:27:36.688Z,14.28
2017-10-09T12:28:36.598Z,14.44
2017-10-09T12:29:36.715Z,14.30
2017-10-09T12:30:36.609Z,14.30
2017-10-09T12:31:36.692Z,14.30
2017-10-09T12:32:36.644Z,14.41
2017-10-09T12:33:36.716Z,14.41
2017-10-09T12:34:36.640Z,14.47
2017-10-09T12:35:36.726Z,14.50
2017-10-09T12:36:36.648Z,14.58
2017-10-09T12:37:37.761Z,14.40
2017-10-09T12:38:36.662Z,14.51
2017-10-09T12:39:36.753Z,14.48
2017-10-09T12:40:36.674Z,14.48
2017-10-09T12:41:36.763Z,14.43
2017-10-09T12:42:36.684Z,14.51
2017-10-09T12:43:36.780Z,14.60
2017-10-09T12:44:36.703Z,14.44
2017-10-09T12:45:36.792Z,14.54
2017-10-09T12:46:36.717Z,14.58
2017-10-09T12:47:36.805Z,14.50
2017-10-09T12:48:36.729Z,14.51
2017-10-09T12:49:36.818Z,14.55
2017-10-09T12:50:36.743Z,14.62
2017-10-09T12:51:36.832Z,14.54
2017-10-09T12:52:36.757Z,14.68
2017-10-09T12:53:36.852Z,14.62
2017-10-09T12:54:36.773Z,14.70
2017-10-09T12:55:36.860Z,14.72
2017-10-09T12:56:36.784Z,14.63
2017-10-09T12:57:36.875Z,14.65
2017-10-09T12:58:36.797Z,14.63
2017-10-09T12:59:36.893Z,14.72
2017-10-09T13:00:36.811Z,14.69
2017-10-09T13:01:36.900Z,14.79
2017-10-09T13:02:36.820Z,14.79
2017-10-09T13:03:36.919Z,14.73
2017-10-09T13:04:36.839Z,14.78
2017-10-09T13:05:36.932Z,14.81
2017-10-09T13:06:36.851Z,14.81
2017-10-09T13:07:36.944Z,14.79
2017-10-09T13:08:36.868Z,14.78
2017-10-09T13:09:36.958Z,14.78